createdAt,value
2018-05-26T00:02:08.279Z,6.87
2018-05-26T00:04:35.816Z,6.50
2018-05-26T00:07:03.382Z,6.37
2018-05-26T00:09:30.936Z,6.63
2018-05-26T00:11:58.510Z,7.67
2018-05-26T00:14:27.087Z,6.67
2018-05-26T00:16:54.745Z,6.63
2018-05-26T00:19:22.298Z,6.90
2018-05-26T00:21:49.864Z,6.03
2018-05-26T00:24:17.397Z,6.60
2018-05-26T00:26:44.985Z,6.20
2018-05-26T00:29:12.529Z,6.80
2018-05-26T00:31:40.091Z,7.03
2018-05-26T00:34:07.641Z,7.73
2018-05-26T00:36:35.212Z,7.17
2018-05-26T00:39:02.751Z,8.07
2018-05-26T00:41:31.066Z,6.80
2018-05-26T00:43:58.600Z,7.50
2018-05-26T00:46:26.137Z,6.93
2018-05-26T00:48:54.462Z,7.43
2018-05-26T00:51:22.011Z,8.33
2018-05-26T00:53:49.579Z,7.00
2018-05-26T00:56:17.111Z,8.10
2018-05-26T00:58:45.438Z,7.70
2018-05-26T01:01:13.883Z,8.10
2018-05-26T01:03:41.439Z,8.70
2018-05-26T01:06:08.996Z,8.87
2018-05-26T01:08:36.579Z,8.30
2018-05-26T01:11:04.128Z,8.60
2018-05-26T01:13:31.698Z,8.30
2018-05-26T01:15:59.247Z,7.30
2018-05-26T01:18:26.805Z,7.40
2018-05-26T01:20:54.349Z,9.07
2018-05-26T01:23:22.682Z,9.50
2018-05-26T01:25:50.224Z,9.07
2018-05-26T01:28:17.796Z,10.53
2018-05-26T01:30:45.340Z,10.27
2018-05-26T01:33:12.922Z,10.50
2018-05-26T01:35:40.474Z,10.03
2018-05-26T01:38:08.043Z,11.13
2018-05-26T01:40:35.589Z,11.20
2018-05-26T01:43:03.154Z,11.97
2018-05-26T01:45:30.697Z,12.93
2018-05-26T01:47:58.978Z,12.50
2018-05-26T01:50:26.526Z,12.50
2018-05-26T01:52:54.087Z,12.60
2018-05-26T01:55:21.632Z,13.83
2018-05-26T01:57:49.198Z,12.33
2018-05-26T02:00:16.740Z,12.80
2018-05-26T02:02:45.156Z,12.13
2018-05-26T02:05:13.294Z,13.30
2018-05-26T02:07:41.623Z,12.60
2018-05-26T02:10:09.165Z,12.23
2018-05-26T02:12:36.735Z,11.67
2018-05-26T02:15:04.286Z,11.53
2018-05-26T02:17:31.862Z,11.90
2018-05-26T02:19:59.404Z,13.00
2018-05-26T02:22:26.934Z,12.13
2018-05-26T02:24:55.261Z,11.47
2018-05-26T02:27:22.804Z,11.53
2018-05-26T02:29:50.447Z,11.77
2018-05-26T02:32:18.026Z,11.80
2018-05-26T02:34:45.598Z,11.67
2018-05-26T02:37:13.139Z,12.23
2018-05-26T02:39:40.703Z,12.53
2018-05-26T02:42:08.259Z,13.37
2018-05-26T02:44:35.827Z,12.80
2018-05-26T02:47:03.372Z,13.20
2018-05-26T02:49:30.943Z,13.20
2018-05-26T02:51:58.489Z,12.23
2018-05-26T02:54:26.056Z,13.50
2018-05-26T02:56:53.591Z,11.97
2018-05-26T02:59:21.921Z,12.17
2018-05-26T03:01:49.455Z,12.40
2018-05-26T03:04:22.784Z,12.00
2018-05-26T03:06:55.951Z,11.77
2018-05-26T03:09:29.216Z,10.70
2018-05-26T03:12:03.287Z,12.63
2018-05-26T03:14:36.527Z,10.47
2018-05-26T03:17:04.837Z,11.50
2018-05-26T03:19:32.411Z,11.20
2018-05-26T03:21:59.954Z,11.10
2018-05-26T03:24:27.512Z,10.90
2018-05-26T03:26:55.050Z,10.53
2018-05-26T03:29:22.616Z,9.97
2018-05-26T03:31:50.923Z,11.03
2018-05-26T03:34:18.489Z,10.50
2018-05-26T03:36:46.022Z,11.30
2018-05-26T03:39:13.567Z,11.37
2018-05-26T03:41:41.124Z,10.50
2018-05-26T03:44:09.431Z,11.40
2018-05-26T03:46:37.003Z,11.37
2018-05-26T03:49:04.539Z,11.13
2018-05-26T03:51:32.104Z,10.67
2018-05-26T03:54:00.668Z,11.10
2018-05-26T03:56:40.067Z,10.83
2018-05-26T03:59:19.416Z,10.60
2018-05-26T04:01:47.741Z,8.13
2018-05-26T04:04:15.274Z,9.17
2018-05-26T04:06:43.606Z,10.17
2018-05-26T04:09:11.139Z,9.03
2018-05-26T04:11:39.832Z,10.57
2018-05-26T04:14:07.365Z,9.27
2018-05-26T04:16:34.922Z,9.77
2018-05-26T04:19:02.457Z,12.70
2018-05-26T04:21:30.785Z,10.17
2018-05-26T04:23:58.958Z,10.30
2018-05-26T04:26:27.077Z,10.47
2018-05-26T04:28:55.396Z,11.33
2018-05-26T04:31:22.950Z,9.53
2018-05-26T04:33:50.486Z,9.00
2018-05-26T04:36:18.805Z,9.80
2018-05-26T04:38:46.342Z,9.30
2018-05-26T04:41:13.905Z,10.17
2018-05-26T04:43:41.450Z,9.30
2018-05-26T04:46:09.779Z,9.20
2018-05-26T04:48:37.326Z,9.50
2018-05-26T04:51:06.348Z,9.13
2018-05-26T04:53:33.894Z,9.77
2018-05-26T04:56:01.431Z,8.77
2018-05-26T04:58:29.001Z,10.53
2018-05-26T05:00:56.547Z,9.43
2018-05-26T05:03:24.120Z,10.07
2018-05-26T05:05:51.654Z,10.10
2018-05-26T05:08:19.219Z,9.50
2018-05-26T05:10:48.435Z,9.47
2018-05-26T05:13:15.994Z,10.27
2018-05-26T05:15:43.534Z,10.20
2018-05-26T05:18:11.096Z,10.67
2018-05-26T05:20:38.639Z,10.20
2018-05-26T05:23:06.974Z,11.00
2018-05-26T05:25:34.515Z,9.80
2018-05-26T05:28:02.080Z,10.50
2018-05-26T05:30:29.618Z,11.30
2018-05-26T05:32:57.178Z,11.10
2018-05-26T05:35:24.722Z,11.47
2018-05-26T05:37:53.061Z,11.50
2018-05-26T05:40:20.613Z,12.57
2018-05-26T05:42:48.187Z,12.20
2018-05-26T05:45:15.732Z,11.33
2018-05-26T05:47:43.292Z,11.87
2018-05-26T05:50:10.842Z,12.33
2018-05-26T05:52:38.419Z,12.43
2018-05-26T05:55:05.964Z,12.93
2018-05-26T05:57:33.526Z,12.07
2018-05-26T06:00:01.079Z,12.93
2018-05-26T06:02:28.648Z,13.00
2018-05-26T06:04:56.190Z,13.70
2018-05-26T06:07:23.747Z,12.50
2018-05-26T06:09:51.285Z,14.27
2018-05-26T06:12:18.855Z,13.03
2018-05-26T06:14:46.412Z,14.20
2018-05-26T06:17:13.994Z,14.10
2018-05-26T06:19:41.541Z,14.73
2018-05-26T06:22:09.111Z,16.53
2018-05-26T06:24:36.670Z,15.00
2018-05-26T06:27:04.234Z,14.30
2018-05-26T06:29:31.780Z,15.17
2018-05-26T06:31:59.358Z,14.30
2018-05-26T06:34:26.914Z,15.97
2018-05-26T06:36:54.483Z,16.27
2018-05-26T06:39:22.805Z,16.23
2018-05-26T06:41:51.140Z,15.17
2018-05-26T06:44:18.683Z,14.23
2018-05-26T06:46:46.261Z,14.80
2018-05-26T06:49:13.796Z,14.23
2018-05-26T06:51:41.362Z,14.73
2018-05-26T06:54:08.925Z,14.67
2018-05-26T06:56:36.484Z,15.60
2018-05-26T06:59:04.041Z,15.90
2018-05-26T07:01:31.588Z,12.70
2018-05-26T07:04:00.054Z,13.53
2018-05-26T07:06:28.373Z,13.10
2018-05-26T07:08:55.933Z,13.20
2018-05-26T07:11:23.487Z,13.03
2018-05-26T07:13:51.692Z,13.03
2018-05-26T07:16:19.246Z,11.80
2018-05-26T07:18:46.814Z,12.67
2018-05-26T07:21:14.360Z,14.67
2018-05-26T07:23:41.922Z,14.07
2018-05-26T07:26:09.469Z,12.90
2018-05-26T07:28:37.031Z,12.13
2018-05-26T07:31:04.586Z,14.33
2018-05-26T07:33:32.155Z,15.07
2018-05-26T07:35:59.690Z,13.13
2018-05-26T07:38:27.590Z,13.77
2018-05-26T07:40:55.141Z,14.90
2018-05-26T07:43:22.698Z,14.43
2018-05-26T07:45:50.240Z,13.60
2018-05-26T07:48:17.809Z,13.90
2018-05-26T07:50:45.359Z,12.30
2018-05-26T07:53:12.955Z,13.10
2018-05-26T07:55:40.514Z,11.23
2018-05-26T07:58:08.073Z,13.00
2018-05-26T08:00:35.648Z,12.83
2018-05-26T08:03:03.194Z,13.13
2018-05-26T08:05:30.748Z,13.17
2018-05-26T08:07:58.322Z,13.40
2018-05-26T08:10:25.881Z,12.93
2018-05-26T08:12:53.446Z,12.27
2018-05-26T08:15:20.993Z,13.10
2018-05-26T08:17:48.566Z,13.40
2018-05-26T08:20:16.106Z,13.10
2018-05-26T08:22:43.674Z,12.53
2018-05-26T08:25:11.226Z,12.50
2018-05-26T08:27:38.781Z,12.00
2018-05-26T08:30:06.333Z,10.70
2018-05-26T08:32:33.906Z,10.70
2018-05-26T08:35:01.448Z,10.40
2018-05-26T08:37:29.014Z,8.63
2018-05-26T08:39:56.555Z,11.03
2018-05-26T08:42:24.119Z,8.97
2018-05-26T08:44:51.663Z,9.60
2018-05-26T08:47:20.082Z,9.93
2018-05-26T08:49:47.636Z,10.30
2018-05-26T08:52:15.209Z,8.83
2018-05-26T08:54:42.753Z,9.80
2018-05-26T08:57:10.298Z,8.60
2018-05-26T08:59:37.859Z,8.17
2018-05-26T09:02:05.404Z,7.00
2018-05-26T09:04:33.733Z,8.17
2018-05-26T09:07:01.384Z,8.97
2018-05-26T09:09:29.426Z,8.50
2018-05-26T09:11:57.816Z,9.43
2018-05-26T09:14:25.384Z,7.50
2018-05-26T09:16:52.941Z,7.53
2018-05-26T09:19:20.493Z,6.40
2018-05-26T09:21:48.076Z,6.30
2018-05-26T09:24:15.604Z,6.70
2018-05-26T09:26:43.142Z,6.97
2018-05-26T09:29:11.470Z,7.50
2018-05-26T09:31:39.016Z,7.30
2018-05-26T09:34:06.686Z,7.07
2018-05-26T09:36:34.240Z,6.20
2018-05-26T09:39:01.801Z,7.00
2018-05-26T09:41:29.335Z,7.37
2018-05-26T09:43:57.661Z,7.07
2018-05-26T09:46:25.199Z,6.60
2018-05-26T09:48:52.767Z,6.30
2018-05-26T09:51:20.302Z,6.47
2018-05-26T09:53:47.860Z,7.30
2018-05-26T09:56:15.397Z,7.83
2018-05-26T09:58:43.726Z,6.00
2018-05-26T10:01:11.268Z,6.63
2018-05-26T10:03:38.831Z,5.70
2018-05-26T10:06:06.374Z,6.00
2018-05-26T10:08:33.930Z,4.30
2018-05-26T10:11:02.235Z,3.90
2018-05-26T10:13:29.859Z,2.83
2018-05-26T10:15:57.342Z,3.80
2018-05-26T10:18:24.903Z,4.03
2018-05-26T10:20:53.200Z,3.80
2018-05-26T10:23:20.755Z,3.40
2018-05-26T10:25:48.291Z,3.70
2018-05-26T10:28:15.855Z,3.73
2018-05-26T10:30:43.390Z,4.07
2018-05-26T10:33:11.711Z,5.13
2018-05-26T10:35:39.277Z,5.37
2018-05-26T10:38:06.854Z,4.70
2018-05-26T10:40:34.403Z,7.23
2018-05-26T10:43:01.959Z,6.70
2018-05-26T10:45:39.451Z,5.40
2018-05-26T10:48:07.315Z,6.30
2018-05-26T10:50:34.855Z,5.93
2018-05-26T10:53:02.426Z,5.10
2018-05-26T10:55:29.965Z,5.97
2018-05-26T10:57:58.265Z,4.20
2018-05-26T11:00:25.815Z,3.60
2018-05-26T11:02:53.365Z,3.90
2018-05-26T11:05:20.932Z,3.50
2018-05-26T11:07:48.466Z,2.93
2018-05-26T11:10:16.791Z,3.30
2018-05-26T11:12:44.318Z,3.70
2018-05-26T11:15:12.729Z,2.80
2018-05-26T11:17:40.261Z,3.57
2018-05-26T11:20:07.835Z,3.40
2018-05-26T11:22:35.370Z,3.37
2018-05-26T11:25:03.695Z,3.10
2018-05-26T11:27:31.232Z,3.73
2018-05-26T11:29:58.791Z,4.67
2018-05-26T11:32:26.332Z,3.63
2018-05-26T11:34:54.662Z,3.30
2018-05-26T11:37:22.252Z,3.20
2018-05-26T11:39:49.779Z,3.53
2018-05-26T11:42:17.322Z,2.87
2018-05-26T11:44:44.872Z,2.80
2018-05-26T11:47:12.445Z,2.43
2018-05-26T11:49:40.010Z,2.43
2018-05-26T11:52:07.546Z,2.80
2018-05-26T11:54:35.103Z,4.10
2018-05-26T11:57:02.656Z,2.70
2018-05-26T11:59:31.056Z,2.50
2018-05-26T12:01:58.597Z,2.10
2018-05-26T12:04:26.166Z,2.40
2018-05-26T12:06:53.702Z,2.37
2018-05-26T12:09:22.038Z,1.87
2018-05-26T12:11:49.567Z,1.87
2018-05-26T12:14:17.128Z,1.70
2018-05-26T12:16:44.667Z,2.10
2018-05-26T12:19:14.333Z,1.50
2018-05-26T12:21:41.872Z,2.60
2018-05-26T12:24:09.420Z,2.13
2018-05-26T12:26:36.955Z,1.60
2018-05-26T12:29:05.281Z,2.00
2018-05-26T12:31:32.822Z,1.93
2018-05-26T12:34:01.410Z,2.33
2018-05-26T12:36:28.956Z,2.03
2018-05-26T12:38:56.520Z,1.93
2018-05-26T12:41:25.222Z,2.10
2018-05-26T12:43:52.795Z,2.03
2018-05-26T12:46:21.666Z,1.93
2018-05-26T12:48:49.231Z,1.87
2018-05-26T12:51:16.760Z,2.30
2018-05-26T12:53:45.059Z,2.00
2018-05-26T12:56:12.621Z,2.00
2018-05-26T12:58:40.165Z,1.63
2018-05-26T13:01:07.727Z,1.70
2018-05-26T13:03:35.266Z,1.80
2018-05-26T13:06:03.603Z,1.70
2018-05-26T13:08:31.138Z,1.57
2018-05-26T13:10:59.957Z,1.57
2018-05-26T13:13:27.487Z,1.70
2018-05-26T13:15:55.040Z,1.87
2018-05-26T13:18:22.907Z,1.83
2018-05-26T13:20:50.476Z,1.60
2018-05-26T13:23:18.012Z,1.90
2018-05-26T13:25:46.332Z,2.17
2018-05-26T13:28:13.869Z,2.00
2018-05-26T13:30:41.431Z,2.20
2018-05-26T13:33:08.967Z,2.50
2018-05-26T13:35:37.295Z,2.30
2018-05-26T13:38:04.832Z,2.00
2018-05-26T13:40:33.247Z,2.23
2018-05-26T13:43:00.786Z,1.97
2018-05-26T13:45:28.355Z,1.90
2018-05-26T13:47:56.645Z,2.20
2018-05-26T13:50:24.207Z,2.90
2018-05-26T13:52:51.801Z,2.37
2018-05-26T13:55:19.333Z,2.87
2018-05-26T13:57:46.869Z,2.63
2018-05-26T14:00:14.426Z,2.80
2018-05-26T14:02:41.961Z,3.20
2018-05-26T14:05:09.512Z,3.17
2018-05-26T14:07:37.805Z,3.00
2018-05-26T14:10:05.366Z,3.17
2018-05-26T14:12:39.720Z,2.80
2018-05-26T14:15:07.284Z,3.10
2018-05-26T14:17:34.814Z,3.20
2018-05-26T14:20:02.375Z,3.27
2018-05-26T14:22:29.915Z,3.10
2018-05-26T14:24:57.495Z,2.60
2018-05-26T14:27:25.039Z,3.53
2018-05-26T14:29:52.590Z,3.00
2018-05-26T14:32:20.878Z,2.73
2018-05-26T14:34:48.440Z,2.70
2018-05-26T14:37:15.983Z,2.50
2018-05-26T14:39:44.302Z,2.20
2018-05-26T14:42:11.897Z,2.30
2018-05-26T14:44:39.415Z,2.93
2018-05-26T14:47:06.956Z,1.93
2018-05-26T14:49:34.519Z,2.30
2018-05-26T14:52:02.065Z,2.67
2018-05-26T14:54:30.388Z,2.73
2018-05-26T14:56:57.929Z,2.40
2018-05-26T14:59:25.461Z,2.40
2018-05-26T15:01:53.777Z,2.43
2018-05-26T15:04:21.315Z,2.30
2018-05-26T15:06:48.880Z,1.87
2018-05-26T15:09:16.416Z,1.97
2018-05-26T15:11:44.739Z,2.30
2018-05-26T15:14:12.278Z,2.00
2018-05-26T15:16:39.833Z,1.80
2018-05-26T15:19:07.370Z,1.93
2018-05-26T15:21:35.695Z,1.73
2018-05-26T15:24:03.230Z,2.10
2018-05-26T15:26:30.789Z,2.07
2018-05-26T15:28:58.327Z,1.93
2018-05-26T15:31:26.655Z,2.10
2018-05-26T15:33:54.195Z,1.97
2018-05-26T15:36:21.758Z,2.17
2018-05-26T15:38:49.296Z,2.13
2018-05-26T15:41:16.861Z,1.90
2018-05-26T15:43:44.714Z,2.03
2018-05-26T15:46:13.038Z,1.97
2018-05-26T15:48:40.575Z,2.10
2018-05-26T15:51:08.134Z,2.30
2018-05-26T15:53:35.670Z,2.20
2018-05-26T15:56:03.990Z,2.20
2018-05-26T15:58:31.538Z,2.33
2018-05-26T16:00:59.106Z,2.80
2018-05-26T16:03:26.654Z,2.40
2018-05-26T16:05:54.214Z,2.50
2018-05-26T16:08:21.755Z,2.50
2018-05-26T16:10:50.082Z,2.17
2018-05-26T16:13:17.625Z,2.70
2018-05-26T16:15:45.187Z,2.70
2018-05-26T16:18:12.722Z,2.40
2018-05-26T16:20:40.287Z,2.80
2018-05-26T16:23:07.965Z,2.90
2018-05-26T16:25:35.527Z,2.87
2018-05-26T16:28:03.068Z,3.20
2018-05-26T16:30:30.639Z,3.10
2018-05-26T16:32:58.182Z,3.73
2018-05-26T16:35:25.742Z,3.10
2018-05-26T16:37:54.041Z,3.00
2018-05-26T16:40:21.598Z,3.50
2018-05-26T16:42:49.135Z,2.87
2018-05-26T16:45:17.460Z,2.70
2018-05-26T16:47:44.991Z,2.80
2018-05-26T16:50:12.543Z,2.30
2018-05-26T16:52:40.074Z,2.90
2018-05-26T16:55:08.402Z,3.07
2018-05-26T16:57:35.936Z,3.20
2018-05-26T17:00:03.474Z,2.53
2018-05-26T17:02:31.794Z,2.80
2018-05-26T17:04:59.335Z,3.00
2018-05-26T17:07:26.889Z,3.07
2018-05-26T17:09:55.891Z,3.40
2018-05-26T17:12:23.458Z,3.00
2018-05-26T17:14:50.990Z,3.30
2018-05-26T17:17:19.316Z,3.70
2018-05-26T17:19:46.852Z,3.67
2018-05-26T17:22:14.415Z,3.07
2018-05-26T17:24:41.954Z,3.60
2018-05-26T17:27:10.284Z,3.10
2018-05-26T17:29:37.816Z,3.60
2018-05-26T17:32:05.385Z,3.50
2018-05-26T17:34:35.359Z,2.90
2018-05-26T17:37:03.682Z,3.00
2018-05-26T17:39:31.215Z,3.80
2018-05-26T17:41:58.776Z,3.60
2018-05-26T17:44:26.317Z,4.30
2018-05-26T17:46:55.795Z,3.30
2018-05-26T17:49:23.340Z,3.77
2018-05-26T17:51:50.885Z,3.37
2018-05-26T17:54:18.427Z,3.20
2018-05-26T17:56:45.991Z,3.00
2018-05-26T17:59:13.530Z,3.47
2018-05-26T18:01:41.850Z,3.23
2018-05-26T18:04:09.404Z,3.67
2018-05-26T18:06:36.970Z,3.30
2018-05-26T18:09:04.507Z,3.50
2018-05-26T18:11:32.075Z,3.43
2018-05-26T18:13:59.606Z,3.27
2018-05-26T18:16:27.927Z,3.40
2018-05-26T18:18:56.146Z,3.20
2018-05-26T18:21:23.703Z,2.93
2018-05-26T18:23:51.246Z,3.50
2018-05-26T18:26:18.829Z,3.10
2018-05-26T18:28:47.135Z,3.70
2018-05-26T18:31:15.348Z,3.83
2018-05-26T18:33:42.881Z,3.47
2018-05-26T18:36:10.442Z,3.87
2018-05-26T18:38:37.983Z,3.30
2018-05-26T18:41:06.311Z,3.10
2018-05-26T18:43:33.841Z,3.73
2018-05-26T18:46:02.644Z,3.47
2018-05-26T18:48:30.177Z,4.13
2018-05-26T18:50:57.729Z,5.30
2018-05-26T18:53:26.174Z,5.23
2018-05-26T18:55:55.237Z,5.60
2018-05-26T18:58:22.775Z,5.23
2018-05-26T19:00:50.314Z,5.47
2018-05-26T19:03:18.652Z,12.30
2018-05-26T19:05:46.230Z,12.30
2018-05-26T19:08:13.801Z,8.30
2018-05-26T19:10:41.344Z,8.27
2018-05-26T19:13:08.909Z,9.40
2018-05-26T19:15:36.447Z,7.40
2018-05-26T19:18:04.018Z,7.00
2018-05-26T19:20:31.567Z,6.23
2018-05-26T19:22:59.127Z,8.80
2018-05-26T19:25:26.672Z,8.80
2018-05-26T19:27:54.243Z,12.20
2018-05-26T19:30:22.676Z,27.27
2018-05-26T19:32:51.202Z,19.47
2018-05-26T19:35:18.746Z,16.30
2018-05-26T19:37:46.312Z,13.40
2018-05-26T19:40:13.858Z,13.83
2018-05-26T19:42:41.426Z,11.90
2018-05-26T19:45:08.971Z,11.60
2018-05-26T19:47:36.538Z,19.00
2018-05-26T19:50:04.144Z,16.07
2018-05-26T19:52:31.662Z,10.70
2018-05-26T19:54:59.214Z,8.13
2018-05-26T19:57:26.777Z,6.00
2018-05-26T19:59:54.322Z,6.57
2018-05-26T20:02:23.173Z,7.50
2018-05-26T20:04:50.723Z,7.30
2018-05-26T20:07:18.372Z,6.03
2018-05-26T20:09:45.915Z,6.10
2018-05-26T20:12:14.251Z,7.70
2018-05-26T20:14:41.794Z,29.57
2018-05-26T20:17:09.367Z,53.97
2018-05-26T20:19:37.683Z,55.20
2018-05-26T20:22:05.254Z,39.80
2018-05-26T20:24:32.794Z,39.43
2018-05-26T20:27:01.127Z,32.40
2018-05-26T20:29:28.684Z,21.70
2018-05-26T20:31:56.238Z,15.27
2018-05-26T20:34:23.779Z,14.17
2018-05-26T20:36:51.345Z,28.63
2018-05-26T20:39:18.898Z,24.23
2018-05-26T20:41:46.471Z,88.30
2018-05-26T20:44:14.010Z,35.97
2018-05-26T20:46:41.572Z,14.67
2018-05-26T20:49:09.117Z,11.47
2018-05-26T20:51:37.462Z,11.30
2018-05-26T20:54:05.090Z,9.80
2018-05-26T20:56:32.657Z,10.57
2018-05-26T20:59:00.197Z,11.83
2018-05-26T21:01:27.745Z,9.93
2018-05-26T21:03:55.311Z,13.40
2018-05-26T21:06:22.861Z,11.57
2018-05-26T21:08:51.191Z,10.90
2018-05-26T21:11:18.737Z,12.10
2018-05-26T21:13:46.302Z,11.03
2018-05-26T21:16:13.846Z,12.40
2018-05-26T21:18:41.415Z,19.90
2018-05-26T21:21:08.954Z,19.30
2018-05-26T21:23:36.534Z,18.53
2018-05-26T21:26:04.083Z,27.50
2018-05-26T21:28:31.662Z,18.53
2018-05-26T21:30:59.197Z,38.37
2018-05-26T21:33:26.766Z,30.03
2018-05-26T21:35:54.311Z,17.50
2018-05-26T21:38:21.878Z,19.13
2018-05-26T21:40:49.425Z,22.80
2018-05-26T21:43:16.990Z,34.07
2018-05-26T21:45:44.538Z,27.03
2018-05-26T21:48:12.862Z,13.93
2018-05-26T21:50:40.401Z,13.83
2018-05-26T21:53:07.970Z,15.40
2018-05-26T21:55:35.521Z,34.37
2018-05-26T21:58:03.645Z,20.40
2018-05-26T22:00:31.159Z,12.57
2018-05-26T22:02:58.732Z,9.00
2018-05-26T22:05:26.269Z,8.90
2018-05-26T22:07:53.845Z,16.10
2018-05-26T22:10:21.395Z,18.30
2018-05-26T22:12:48.954Z,18.00
2018-05-26T22:15:16.504Z,15.93
2018-05-26T22:17:44.076Z,16.20
2018-05-26T22:20:11.615Z,15.60
2018-05-26T22:22:39.943Z,22.33
2018-05-26T22:25:07.488Z,16.20
2018-05-26T22:27:35.055Z,15.20
2018-05-26T22:30:02.598Z,23.23
2018-05-26T22:32:30.163Z,17.37
2018-05-26T22:34:57.701Z,12.13
2018-05-26T22:37:25.259Z,22.93
2018-05-26T22:39:52.810Z,10.70
2018-05-26T22:42:21.138Z,20.20
2018-05-26T22:44:48.677Z,19.43
2018-05-26T22:47:16.231Z,27.40
2018-05-26T22:49:44.538Z,21.93
2018-05-26T22:52:12.107Z,20.70
2018-05-26T22:54:39.662Z,13.57
2018-05-26T22:57:07.214Z,13.40
2018-05-26T22:59:34.782Z,19.73
2018-05-26T23:02:03.337Z,22.50
2018-05-26T23:04:30.915Z,22.17
2018-05-26T23:06:58.473Z,21.13
2018-05-26T23:09:26.044Z,13.60
2018-05-26T23:11:53.580Z,14.90
2018-05-26T23:14:21.138Z,13.87
2018-05-26T23:16:48.682Z,16.90
2018-05-26T23:19:16.249Z,15.67
2018-05-26T23:21:46.635Z,19.80
2018-05-26T23:24:14.198Z,17.17
2018-05-26T23:26:42.517Z,18.23
2018-05-26T23:29:10.079Z,18.43
2018-05-26T23:31:37.617Z,18.73
2018-05-26T23:34:05.943Z,17.73
2018-05-26T23:36:33.487Z,15.20
2018-05-26T23:39:01.062Z,14.00
2018-05-26T23:41:28.619Z,11.97
2018-05-26T23:43:56.183Z,11.10
2018-05-26T23:46:23.726Z,11.20
2018-05-26T23:48:51.291Z,9.90
2018-05-26T23:51:18.837Z,10.27
2018-05-26T23:53:46.407Z,16.77
2018-05-26T23:56:13.963Z,17.57
2018-05-26T23:58:41.528Z,27.00
